sensor_id;sensor_type;location;lat;lon;timestamp;P1;durP1;ratioP1;P2;durP2;ratioP2
61322;SDS011;47203;48.428;11.974;2022-07-21T00:00:42;5.40;;;3.30;;
61322;SDS011;47203;48.428;11.974;2022-07-21T00:02:47;5.22;;;3.38;;
61322;SDS011;47203;48.428;11.974;2022-07-21T00:04:56;8.02;;;6.10;;
61322;SDS011;47203;48.428;11.974;2022-07-21T00:07:01;7.35;;;6.45;;
61322;SDS011;47203;48.428;11.974;2022-07-21T00:09:06;5.32;;;3.17;;
61322;SDS011;47203;48.428;11.974;2022-07-21T00:11:12;5.53;;;4.20;;
61322;SDS011;47203;48.428;11.974;2022-07-21T00:13:17;5.78;;;4.35;;
61322;SDS011;47203;48.428;11.974;2022-07-21T00:15:24;4.47;;;3.08;;
61322;SDS011;47203;48.428;11.974;2022-07-21T00:17:31;3.67;;;2.40;;
61322;SDS011;47203;48.428;11.974;2022-07-21T00:19:37;4.03;;;2.50;;
61322;SDS011;47203;48.428;11.974;2022-07-21T00:21:45;8.02;;;5.53;;
61322;SDS011;47203;48.428;11.974;2022-07-21T00:23:50;25.38;;;21.85;;
61322;SDS011;47203;48.428;11.974;2022-07-21T00:25:56;8.30;;;6.82;;
61322;SDS011;47203;48.428;11.974;2022-07-21T00:28:02;8.23;;;5.00;;
61322;SDS011;47203;48.428;11.974;2022-07-21T00:30:08;6.40;;;3.05;;
61322;SDS011;47203;48.428;11.974;2022-07-21T00:32:16;3.17;;;2.30;;
61322;SDS011;47203;48.428;11.974;2022-07-21T00:34:21;3.95;;;2.60;;
61322;SDS011;47203;48.428;11.974;2022-07-21T00:36:27;4.47;;;2.58;;
61322;SDS011;47203;48.428;11.974;2022-07-21T00:38:35;8.18;;;5.47;;
61322;SDS011;47203;48.428;11.974;2022-07-21T00:40:46;6.88;;;5.28;;
61322;SDS011;47203;48.428;11.974;2022-07-21T00:42:51;5.03;;;2.97;;
61322;SDS011;47203;48.428;11.974;2022-07-21T00:44:57;4.70;;;2.50;;
61322;SDS011;47203;48.428;11.974;2022-07-21T00:47:04;4.55;;;2.90;;
61322;SDS011;47203;48.428;11.974;2022-07-21T00:49:09;6.05;;;3.97;;
61322;SDS011;47203;48.428;11.974;2022-07-21T00:51:15;11.90;;;5.47;;
61322;SDS011;47203;48.428;11.974;2022-07-21T00:53:20;17.40;;;10.40;;
61322;SDS011;47203;48.428;11.974;2022-07-21T00:55:28;16.98;;;8.60;;
61322;SDS011;47203;48.428;11.974;2022-07-21T00:57:33;9.73;;;5.60;;
61322;SDS011;47203;48.428;11.974;2022-07-21T00:59:39;8.98;;;4.00;;
61322;SDS011;47203;48.428;11.974;2022-07-21T01:01:46;4.13;;;2.40;;
61322;SDS011;47203;48.428;11.974;2022-07-21T01:03:51;3.90;;;2.30;;
61322;SDS011;47203;48.428;11.974;2022-07-21T01:05:57;2.38;;;1.80;;
61322;SDS011;47203;48.428;11.974;2022-07-21T01:08:04;4.43;;;2.83;;
61322;SDS011;47203;48.428;11.974;2022-07-21T01:10:12;12.32;;;2.78;;
61322;SDS011;47203;48.428;11.974;2022-07-21T01:12:22;2.95;;;2.00;;
61322;SDS011;47203;48.428;11.974;2022-07-21T01:14:27;6.88;;;3.10;;
61322;SDS011;47203;48.428;11.974;2022-07-21T01:16:33;3.90;;;2.20;;
61322;SDS011;47203;48.428;11.974;2022-07-21T01:18:38;4.32;;;2.50;;
61322;SDS011;47203;48.428;11.974;2022-07-21T01:20:44;4.10;;;2.28;;
61322;SDS011;47203;48.428;11.974;2022-07-21T01:23:00;4.50;;;2.65;;
61322;SDS011;47203;48.428;11.974;2022-07-21T01:25:06;3.78;;;2.05;;
61322;SDS011;47203;48.428;11.974;2022-07-21T01:27:13;4.15;;;2.75;;
61322;SDS011;47203;48.428;11.974;2022-07-21T01:29:19;3.40;;;2.42;;
61322;SDS011;47203;48.428;11.974;2022-07-21T01:31:25;5.40;;;2.75;;
61322;SDS011;47203;48.428;11.974;2022-07-21T01:33:30;4.82;;;2.42;;
61322;SDS011;47203;48.428;11.974;2022-07-21T01:35:36;5.57;;;2.50;;
61322;SDS011;47203;48.428;11.974;2022-07-21T01:37:42;3.75;;;2.38;;
61322;SDS011;47203;48.428;11.974;2022-07-21T01:39:53;4.90;;;2.90;;
61322;SDS011;47203;48.428;11.974;2022-07-21T01:42:11;4.50;;;2.67;;
61322;SDS011;47203;48.428;11.974;2022-07-21T01:44:14;6.30;;;2.80;;
61322;SDS011;47203;48.428;11.974;2022-07-21T01:46:20;4.53;;;2.95;;
61322;SDS011;47203;48.428;11.974;2022-07-21T01:48:25;6.13;;;3.25;;
61322;SDS011;47203;48.428;11.974;2022-07-21T01:50:31;4.03;;;2.65;;
61322;SDS011;47203;48.428;11.974;2022-07-21T01:52:36;5.30;;;2.80;;
61322;SDS011;47203;48.428;11.974;2022-07-21T01:54:41;5.28;;;3.15;;
61322;SDS011;47203;48.428;11.974;2022-07-21T01:56:49;4.93;;;2.90;;
61322;SDS011;47203;48.428;11.974;2022-07-21T01:58:56;5.28;;;2.83;;
61322;SDS011;47203;48.428;11.974;2022-07-21T02:01:02;3.72;;;3.05;;
61322;SDS011;47203;48.428;11.974;2022-07-21T02:03:08;4.75;;;3.38;;
61322;SDS011;47203;48.428;11.974;2022-07-21T02:05:13;4.38;;;2.70;;
61322;SDS011;47203;48.428;11.974;2022-07-21T02:07:18;3.35;;;2.60;;
61322;SDS011;47203;48.428;11.974;2022-07-21T02:09:23;4.60;;;3.08;;
61322;SDS011;47203;48.428;11.974;2022-07-21T02:11:29;4.82;;;2.88;;
61322;SDS011;47203;48.428;11.974;2022-07-21T02:13:37;3.88;;;2.80;;
61322;SDS011;47203;48.428;11.974;2022-07-21T02:15:43;3.90;;;2.78;;
61322;SDS011;47203;48.428;11.974;2022-07-21T02:17:48;5.32;;;3.25;;
61322;SDS011;47203;48.428;11.974;2022-07-21T02:19:53;7.05;;;3.10;;
61322;SDS011;47203;48.428;11.974;2022-07-21T02:21:58;5.03;;;2.95;;
61322;SDS011;47203;48.428;11.974;2022-07-21T02:24:04;4.15;;;3.10;;
61322;SDS011;47203;48.428;11.974;2022-07-21T02:26:10;5.05;;;3.10;;
61322;SDS011;47203;48.428;11.974;2022-07-21T02:28:16;4.70;;;3.17;;
61322;SDS011;47203;48.428;11.974;2022-07-21T02:30:24;4.57;;;3.00;;
61322;SDS011;47203;48.428;11.974;2022-07-21T02:32:29;4.13;;;2.90;;
61322;SDS011;47203;48.428;11.974;2022-07-21T02:34:35;4.30;;;3.10;;
61322;SDS011;47203;48.428;11.974;2022-07-21T02:36:40;6.10;;;3.70;;
61322;SDS011;47203;48.428;11.974;2022-07-21T02:38:46;4.68;;;3.30;;
61322;SDS011;47203;48.428;11.974;2022-07-21T02:40:52;6.22;;;3.55;;
61322;SDS011;47203;48.428;11.974;2022-07-21T02:42:58;5.60;;;3.17;;
61322;SDS011;47203;48.428;11.974;2022-07-21T02:45:04;5.05;;;3.05;;
61322;SDS011;47203;48.428;11.974;2022-07-21T02:47:14;4.00;;;2.72;;
61322;SDS011;47203;48.428;11.974;2022-07-21T02:49:19;6.30;;;3.40;;
61322;SDS011;47203;48.428;11.974;2022-07-21T02:51:25;4.05;;;3.05;;
61322;SDS011;47203;48.428;11.974;2022-07-21T02:53:30;4.32;;;3.10;;
61322;SDS011;47203;48.428;11.974;2022-07-21T02:55:37;5.47;;;3.08;;
61322;SDS011;47203;48.428;11.974;2022-07-21T02:57:43;5.05;;;3.22;;
61322;SDS011;47203;48.428;11.974;2022-07-21T02:59:48;6.35;;;3.42;;
61322;SDS011;47203;48.428;11.974;2022-07-21T03:01:53;3.65;;;2.75;;
61322;SDS011;47203;48.428;11.974;2022-07-21T03:04:02;5.68;;;3.08;;
61322;SDS011;47203;48.428;11.974;2022-07-21T03:06:07;4.60;;;3.22;;
61322;SDS011;47203;48.428;11.974;2022-07-21T03:08:12;4.57;;;3.22;;
61322;SDS011;47203;48.428;11.974;2022-07-21T03:10:18;3.97;;;3.40;;
61322;SDS011;47203;48.428;11.974;2022-07-21T03:12:23;5.38;;;3.63;;
61322;SDS011;47203;48.428;11.974;2022-07-21T03:14:28;4.32;;;3.00;;
61322;SDS011;47203;48.428;11.974;2022-07-21T03:16:34;4.78;;;3.50;;
61322;SDS011;47203;48.428;11.974;2022-07-21T03:18:39;4.78;;;3.13;;
61322;SDS011;47203;48.428;11.974;2022-07-21T03:20:47;4.65;;;3.58;;
61322;SDS011;47203;48.428;11.974;2022-07-21T03:22:53;5.05;;;3.78;;
61322;SDS011;47203;48.428;11.974;2022-07-21T03:24:58;4.55;;;3.38;;
61322;SDS011;47203;48.428;11.974;2022-07-21T03:27:04;6.00;;;3.58;;
61322;SDS011;47203;48.428;11.974;2022-07-21T03:29:09;6.60;;;3.72;;
61322;SDS011;47203;48.428;11.974;2022-07-21T03:31:14;5.60;;;3.55;;
61322;SDS011;47203;48.428;11.974;2022-07-21T03:33:20;4.43;;;3.38;;
61322;SDS011;47203;48.428;11.974;2022-07-21T03:35:25;3.60;;;2.92;;
61322;SDS011;47203;48.428;11.974;2022-07-21T03:37:39;4.25;;;3.47;;
61322;SDS011;47203;48.428;11.974;2022-07-21T03:39:48;4.22;;;2.97;;
61322;SDS011;47203;48.428;11.974;2022-07-21T03:41:53;4.85;;;3.40;;
61322;SDS011;47203;48.428;11.974;2022-07-21T03:43:59;6.07;;;3.03;;
61322;SDS011;47203;48.428;11.974;2022-07-21T03:46:04;5.13;;;3.40;;
61322;SDS011;47203;48.428;11.974;2022-07-21T03:48:10;4.38;;;3.47;;
61322;SDS011;47203;48.428;11.974;2022-07-21T03:50:16;3.67;;;2.83;;
61322;SDS011;47203;48.428;11.974;2022-07-21T03:52:21;4.47;;;3.13;;
61322;SDS011;47203;48.428;11.974;2022-07-21T03:54:29;5.05;;;3.60;;
61322;SDS011;47203;48.428;11.974;2022-07-21T03:56:35;4.78;;;3.58;;
61322;SDS011;47203;48.428;11.974;2022-07-21T03:58:40;5.53;;;3.80;;
61322;SDS011;47203;48.428;11.974;2022-07-21T04:00:45;4.97;;;3.38;;
61322;SDS011;47203;48.428;11.974;2022-07-21T04:02:51;4.03;;;3.22;;
61322;SDS011;47203;48.428;11.974;2022-07-21T04:04:58;5.53;;;3.42;;
61322;SDS011;47203;48.428;11.974;2022-07-21T04:07:03;5.05;;;3.13;;
61322;SDS011;47203;48.428;11.974;2022-07-21T04:09:08;4.25;;;2.90;;
61322;SDS011;47203;48.428;11.974;2022-07-21T04:11:17;6.20;;;3.63;;
61322;SDS011;47203;48.428;11.974;2022-07-21T04:13:22;5.07;;;3.33;;
61322;SDS011;47203;48.428;11.974;2022-07-21T04:15:28;4.82;;;2.88;;
61322;SDS011;47203;48.428;11.974;2022-07-21T04:17:35;5.05;;;3.47;;
61322;SDS011;47203;48.428;11.974;2022-07-21T04:19:42;5.47;;;3.53;;
61322;SDS011;47203;48.428;11.974;2022-07-21T04:21:48;4.65;;;3.28;;
61322;SDS011;47203;48.428;11.974;2022-07-21T04:23:53;5.05;;;3.38;;
61322;SDS011;47203;48.428;11.974;2022-07-21T04:25:58;5.88;;;3.55;;
61322;SDS011;47203;48.428;11.974;2022-07-21T04:28:06;4.45;;;3.15;;
61322;SDS011;47203;48.428;11.974;2022-07-21T04:30:14;4.88;;;3.72;;
61322;SDS011;47203;48.428;11.974;2022-07-21T04:32:21;4.97;;;3.55;;
61322;SDS011;47203;48.428;11.974;2022-07-21T04:34:27;5.88;;;3.60;;
61322;SDS011;47203;48.428;11.974;2022-07-21T04:36:33;5.18;;;3.97;;
61322;SDS011;47203;48.428;11.974;2022-07-21T04:38:38;8.75;;;3.28;;
61322;SDS011;47203;48.428;11.974;2022-07-21T04:40:44;5.32;;;3.58;;
61322;SDS011;47203;48.428;11.974;2022-07-21T04:42:49;4.95;;;3.60;;
61322;SDS011;47203;48.428;11.974;2022-07-21T04:44:57;7.90;;;4.43;;
61322;SDS011;47203;48.428;11.974;2022-07-21T04:47:02;5.43;;;3.55;;
61322;SDS011;47203;48.428;11.974;2022-07-21T04:49:08;5.15;;;3.60;;
61322;SDS011;47203;48.428;11.974;2022-07-21T04:51:13;5.55;;;3.83;;
61322;SDS011;47203;48.428;11.974;2022-07-21T04:53:18;6.22;;;4.03;;
61322;SDS011;47203;48.428;11.974;2022-07-21T04:55:24;6.85;;;3.72;;
61322;SDS011;47203;48.428;11.974;2022-07-21T04:57:29;6.18;;;3.88;;
61322;SDS011;47203;48.428;11.974;2022-07-21T04:59:35;5.68;;;4.05;;
61322;SDS011;47203;48.428;11.974;2022-07-21T05:01:43;5.50;;;3.17;;
61322;SDS011;47203;48.428;11.974;2022-07-21T05:03:48;6.57;;;3.67;;
61322;SDS011;47203;48.428;11.974;2022-07-21T05:05:53;5.78;;;3.45;;
61322;SDS011;47203;48.428;11.974;2022-07-21T05:07:59;5.47;;;3.90;;
61322;SDS011;47203;48.428;11.974;2022-07-21T05:10:04;6.57;;;4.85;;
61322;SDS011;47203;48.428;11.974;2022-07-21T05:12:11;4.68;;;3.60;;
61322;SDS011;47203;48.428;11.974;2022-07-21T05:14:16;7.82;;;4.78;;
61322;SDS011;47203;48.428;11.974;2022-07-21T05:16:22;5.70;;;4.80;;
61322;SDS011;47203;48.428;11.974;2022-07-21T05:18:31;6.07;;;5.05;;
61322;SDS011;47203;48.428;11.974;2022-07-21T05:20:37;6.90;;;5.15;;
61322;SDS011;47203;48.428;11.974;2022-07-21T05:22:42;7.35;;;5.22;;
61322;SDS011;47203;48.428;11.974;2022-07-21T05:24:47;6.00;;;5.22;;
61322;SDS011;47203;48.428;11.974;2022-07-21T05:26:53;6.28;;;5.20;;
61322;SDS011;47203;48.428;11.974;2022-07-21T05:28:58;7.35;;;5.47;;
61322;SDS011;47203;48.428;11.974;2022-07-21T05:31:04;6.20;;;4.95;;
61322;SDS011;47203;48.428;11.974;2022-07-21T05:33:09;6.43;;;4.93;;
61322;SDS011;47203;48.428;11.974;2022-07-21T05:35:17;6.57;;;5.22;;
61322;SDS011;47203;48.428;11.974;2022-07-21T05:37:23;6.35;;;5.32;;
61322;SDS011;47203;48.428;11.974;2022-07-21T05:39:29;6.30;;;5.70;;
61322;SDS011;47203;48.428;11.974;2022-07-21T05:41:34;8.10;;;5.88;;
61322;SDS011;47203;48.428;11.974;2022-07-21T05:43:39;7.53;;;6.20;;
61322;SDS011;47203;48.428;11.974;2022-07-21T05:45:45;7.07;;;5.53;;
61322;SDS011;47203;48.428;11.974;2022-07-21T05:47:55;8.63;;;6.47;;
61322;SDS011;47203;48.428;11.974;2022-07-21T05:50:01;11.55;;;5.97;;
61322;SDS011;47203;48.428;11.974;2022-07-21T05:52:09;6.63;;;5.30;;
61322;SDS011;47203;48.428;11.974;2022-07-21T05:54:15;8.32;;;5.80;;
61322;SDS011;47203;48.428;11.974;2022-07-21T05:56:20;7.03;;;5.72;;
61322;SDS011;47203;48.428;11.974;2022-07-21T05:58:25;9.10;;;6.03;;
61322;SDS011;47203;48.428;11.974;2022-07-21T06:00:30;8.50;;;6.60;;
61322;SDS011;47203;48.428;11.974;2022-07-21T06:02:36;7.20;;;5.72;;
61322;SDS011;47203;48.428;11.974;2022-07-21T06:04:41;7.18;;;5.53;;
61322;SDS011;47203;48.428;11.974;2022-07-21T06:06:47;6.32;;;5.28;;
61322;SDS011;47203;48.428;11.974;2022-07-21T06:08:56;7.47;;;5.65;;
61322;SDS011;47203;48.428;11.974;2022-07-21T06:11:02;7.63;;;5.90;;
61322;SDS011;47203;48.428;11.974;2022-07-21T06:13:07;7.90;;;6.10;;
61322;SDS011;47203;48.428;11.974;2022-07-21T06:15:12;7.75;;;5.88;;
61322;SDS011;47203;48.428;11.974;2022-07-21T06:17:18;7.28;;;5.75;;
61322;SDS011;47203;48.428;11.974;2022-07-21T06:19:23;11.15;;;6.35;;
61322;SDS011;47203;48.428;11.974;2022-07-21T06:21:32;7.03;;;5.60;;
61322;SDS011;47203;48.428;11.974;2022-07-21T06:23:46;6.75;;;5.47;;
61322;SDS011;47203;48.428;11.974;2022-07-21T06:25:55;6.40;;;5.43;;
61322;SDS011;47203;48.428;11.974;2022-07-21T06:28:01;8.45;;;5.78;;
61322;SDS011;47203;48.428;11.974;2022-07-21T06:30:08;6.85;;;5.72;;
61322;SDS011;47203;48.428;11.974;2022-07-21T06:32:18;7.70;;;5.88;;
61322;SDS011;47203;48.428;11.974;2022-07-21T06:34:24;7.00;;;6.05;;
61322;SDS011;47203;48.428;11.974;2022-07-21T06:36:29;7.88;;;5.40;;
61322;SDS011;47203;48.428;11.974;2022-07-21T06:38:35;6.55;;;5.28;;
61322;SDS011;47203;48.428;11.974;2022-07-21T06:40:40;6.40;;;5.22;;
61322;SDS011;47203;48.428;11.974;2022-07-21T06:42:49;10.20;;;5.57;;
61322;SDS011;47203;48.428;11.974;2022-07-21T06:45:15;6.72;;;4.85;;
61322;SDS011;47203;48.428;11.974;2022-07-21T06:47:20;6.97;;;5.00;;
61322;SDS011;47203;48.428;11.974;2022-07-21T06:49:26;7.68;;;4.82;;
61322;SDS011;47203;48.428;11.974;2022-07-21T06:51:31;6.97;;;5.00;;
61322;SDS011;47203;48.428;11.974;2022-07-21T06:53:40;8.00;;;5.10;;
61322;SDS011;47203;48.428;11.974;2022-07-21T06:55:46;6.20;;;4.72;;
61322;SDS011;47203;48.428;11.974;2022-07-21T06:58:13;5.25;;;4.13;;
61322;SDS011;47203;48.428;11.974;2022-07-21T07:00:20;4.78;;;4.18;;
61322;SDS011;47203;48.428;11.974;2022-07-21T07:02:26;5.95;;;4.57;;
61322;SDS011;47203;48.428;11.974;2022-07-21T07:04:32;4.97;;;3.83;;
61322;SDS011;47203;48.428;11.974;2022-07-21T07:06:38;6.32;;;4.10;;
61322;SDS011;47203;48.428;11.974;2022-07-21T07:08:45;6.10;;;3.92;;
61322;SDS011;47203;48.428;11.974;2022-07-21T07:10:50;6.93;;;4.07;;
61322;SDS011;47203;48.428;11.974;2022-07-21T07:12:56;6.10;;;4.13;;
61322;SDS011;47203;48.428;11.974;2022-07-21T07:15:24;5.85;;;4.60;;
61322;SDS011;47203;48.428;11.974;2022-07-21T07:17:30;6.25;;;4.53;;
61322;SDS011;47203;48.428;11.974;2022-07-21T07:19:35;8.95;;;5.43;;
61322;SDS011;47203;48.428;11.974;2022-07-21T07:21:40;8.80;;;4.80;;
61322;SDS011;47203;48.428;11.974;2022-07-21T07:23:46;5.95;;;4.38;;
61322;SDS011;47203;48.428;11.974;2022-07-21T07:25:52;5.75;;;4.63;;
61322;SDS011;47203;48.428;11.974;2022-07-21T07:27:57;6.35;;;5.03;;
61322;SDS011;47203;48.428;11.974;2022-07-21T07:30:04;6.38;;;5.15;;
61322;SDS011;47203;48.428;11.974;2022-07-21T07:32:14;6.82;;;5.18;;
61322;SDS011;47203;48.428;11.974;2022-07-21T07:34:19;7.18;;;4.85;;
61322;SDS011;47203;48.428;11.974;2022-07-21T07:36:25;7.20;;;5.28;;
61322;SDS011;47203;48.428;11.974;2022-07-21T07:38:32;7.10;;;4.82;;
61322;SDS011;47203;48.428;11.974;2022-07-21T07:40:37;5.38;;;4.40;;
61322;SDS011;47203;48.428;11.974;2022-07-21T07:42:43;6.32;;;4.70;;
61322;SDS011;47203;48.428;11.974;2022-07-21T07:44:48;7.05;;;4.78;;
61322;SDS011;47203;48.428;11.974;2022-07-21T07:46:54;7.72;;;5.55;;
61322;SDS011;47203;48.428;11.974;2022-07-21T07:49:02;6.72;;;4.70;;
61322;SDS011;47203;48.428;11.974;2022-07-21T07:51:19;6.00;;;4.80;;
61322;SDS011;47203;48.428;11.974;2022-07-21T07:53:25;5.88;;;4.97;;
61322;SDS011;47203;48.428;11.974;2022-07-21T07:55:30;7.85;;;6.05;;
61322;SDS011;47203;48.428;11.974;2022-07-21T07:57:36;7.75;;;5.40;;
61322;SDS011;47203;48.428;11.974;2022-07-21T07:59:42;7.50;;;5.13;;
61322;SDS011;47203;48.428;11.974;2022-07-21T08:01:47;6.80;;;5.15;;
61322;SDS011;47203;48.428;11.974;2022-07-21T08:03:53;6.45;;;5.00;;
61322;SDS011;47203;48.428;11.974;2022-07-21T08:06:01;6.32;;;5.00;;
61322;SDS011;47203;48.428;11.974;2022-07-21T08:08:08;7.65;;;5.43;;
61322;SDS011;47203;48.428;11.974;2022-07-21T08:10:13;6.35;;;5.10;;
61322;SDS011;47203;48.428;11.974;2022-07-21T08:12:39;6.38;;;5.45;;
61322;SDS011;47203;48.428;11.974;2022-07-21T08:14:45;6.45;;;5.20;;
61322;SDS011;47203;48.428;11.974;2022-07-21T08:16:50;6.38;;;4.97;;
61322;SDS011;47203;48.428;11.974;2022-07-21T08:18:56;7.47;;;5.53;;
61322;SDS011;47203;48.428;11.974;2022-07-21T08:21:04;9.63;;;5.18;;
61322;SDS011;47203;48.428;11.974;2022-07-21T08:23:09;8.63;;;5.35;;
61322;SDS011;47203;48.428;11.974;2022-07-21T08:25:17;6.78;;;5.15;;
61322;SDS011;47203;48.428;11.974;2022-07-21T08:27:23;5.82;;;4.95;;
61322;SDS011;47203;48.428;11.974;2022-07-21T08:29:28;5.65;;;4.90;;
61322;SDS011;47203;48.428;11.974;2022-07-21T08:31:33;8.82;;;5.00;;
61322;SDS011;47203;48.428;11.974;2022-07-21T08:33:39;7.18;;;5.18;;
61322;SDS011;47203;48.428;11.974;2022-07-21T08:35:44;7.95;;;5.10;;
61322;SDS011;47203;48.428;11.974;2022-07-21T08:37:56;6.85;;;5.20;;
61322;SDS011;47203;48.428;11.974;2022-07-21T08:40:03;5.75;;;5.15;;
61322;SDS011;47203;48.428;11.974;2022-07-21T08:42:10;5.15;;;4.65;;
61322;SDS011;47203;48.428;11.974;2022-07-21T08:44:16;8.05;;;5.55;;
61322;SDS011;47203;48.428;11.974;2022-07-21T08:46:24;8.90;;;4.90;;
61322;SDS011;47203;48.428;11.974;2022-07-21T08:48:29;7.38;;;5.20;;
61322;SDS011;47203;48.428;11.974;2022-07-21T08:50:36;5.65;;;5.05;;
61322;SDS011;47203;48.428;11.974;2022-07-21T08:52:44;6.00;;;4.25;;
61322;SDS011;47203;48.428;11.974;2022-07-21T08:54:51;6.53;;;5.00;;
61322;SDS011;47203;48.428;11.974;2022-07-21T08:56:57;5.38;;;4.43;;
61322;SDS011;47203;48.428;11.974;2022-07-21T08:59:04;5.78;;;4.63;;
61322;SDS011;47203;48.428;11.974;2022-07-21T09:01:09;7.80;;;6.05;;
61322;SDS011;47203;48.428;11.974;2022-07-21T09:03:16;5.05;;;4.55;;
61322;SDS011;47203;48.428;11.974;2022-07-21T09:05:23;5.55;;;4.82;;
61322;SDS011;47203;48.428;11.974;2022-07-21T09:07:29;5.38;;;4.78;;
61322;SDS011;47203;48.428;11.974;2022-07-21T09:09:58;7.10;;;5.10;;
61322;SDS011;47203;48.428;11.974;2022-07-21T09:12:07;6.03;;;4.63;;
61322;SDS011;47203;48.428;11.974;2022-07-21T09:14:13;7.22;;;4.78;;
61322;SDS011;47203;48.428;11.974;2022-07-21T09:16:31;9.68;;;5.15;;
61322;SDS011;47203;48.428;11.974;2022-07-21T09:18:48;7.65;;;5.28;;
61322;SDS011;47203;48.428;11.974;2022-07-21T09:20:55;6.13;;;5.18;;
61322;SDS011;47203;48.428;11.974;2022-07-21T09:23:04;5.90;;;4.70;;
61322;SDS011;47203;48.428;11.974;2022-07-21T09:25:15;5.68;;;4.78;;
61322;SDS011;47203;48.428;11.974;2022-07-21T09:27:39;5.68;;;4.85;;
61322;SDS011;47203;48.428;11.974;2022-07-21T09:29:46;6.60;;;5.00;;
61322;SDS011;47203;48.428;11.974;2022-07-21T09:31:53;5.93;;;4.80;;
61322;SDS011;47203;48.428;11.974;2022-07-21T09:34:02;6.72;;;5.03;;
61322;SDS011;47203;48.428;11.974;2022-07-21T09:36:17;7.90;;;5.35;;
61322;SDS011;47203;48.428;11.974;2022-07-21T09:38:23;5.53;;;4.63;;
61322;SDS011;47203;48.428;11.974;2022-07-21T09:40:33;5.93;;;5.32;;
61322;SDS011;47203;48.428;11.974;2022-07-21T09:42:51;7.53;;;4.75;;
61322;SDS011;47203;48.428;11.974;2022-07-21T09:44:56;6.82;;;4.72;;
61322;SDS011;47203;48.428;11.974;2022-07-21T09:47:08;5.85;;;4.55;;
61322;SDS011;47203;48.428;11.974;2022-07-21T09:49:16;5.60;;;5.00;;
61322;SDS011;47203;48.428;11.974;2022-07-21T09:51:56;6.63;;;4.90;;
61322;SDS011;47203;48.428;11.974;2022-07-21T09:54:02;6.35;;;4.68;;
61322;SDS011;47203;48.428;11.974;2022-07-21T09:56:15;7.43;;;4.72;;
61322;SDS011;47203;48.428;11.974;2022-07-21T09:58:21;6.15;;;4.93;;
61322;SDS011;47203;48.428;11.974;2022-07-21T10:00:28;7.55;;;5.55;;
61322;SDS011;47203;48.428;11.974;2022-07-21T10:02:34;7.20;;;5.07;;
61322;SDS011;47203;48.428;11.974;2022-07-21T10:04:40;6.35;;;5.25;;
61322;SDS011;47203;48.428;11.974;2022-07-21T10:07:07;21.15;;;7.43;;
61322;SDS011;47203;48.428;11.974;2022-07-21T10:09:14;8.90;;;5.82;;
61322;SDS011;47203;48.428;11.974;2022-07-21T10:11:24;11.73;;;6.85;;
61322;SDS011;47203;48.428;11.974;2022-07-21T10:13:31;10.05;;;6.05;;
61322;SDS011;47203;48.428;11.974;2022-07-21T10:15:37;5.97;;;4.97;;
61322;SDS011;47203;48.428;11.974;2022-07-21T10:17:44;7.25;;;5.47;;
61322;SDS011;47203;48.428;11.974;2022-07-21T10:19:57;6.43;;;5.05;;
61322;SDS011;47203;48.428;11.974;2022-07-21T10:22:14;8.18;;;5.78;;
61322;SDS011;47203;48.428;11.974;2022-07-21T10:24:30;8.20;;;6.00;;
61322;SDS011;47203;48.428;11.974;2022-07-21T10:26:38;7.55;;;5.28;;
61322;SDS011;47203;48.428;11.974;2022-07-21T10:29:04;6.95;;;5.78;;
61322;SDS011;47203;48.428;11.974;2022-07-21T10:31:13;8.77;;;6.15;;
61322;SDS011;47203;48.428;11.974;2022-07-21T10:33:22;8.40;;;5.60;;
61322;SDS011;47203;48.428;11.974;2022-07-21T10:36:01;6.57;;;5.55;;
61322;SDS011;47203;48.428;11.974;2022-07-21T10:38:11;7.30;;;5.32;;
61322;SDS011;47203;48.428;11.974;2022-07-21T10:40:37;9.35;;;5.57;;
61322;SDS011;47203;48.428;11.974;2022-07-21T10:42:47;10.70;;;6.65;;
61322;SDS011;47203;48.428;11.974;2022-07-21T10:45:50;7.53;;;6.20;;
61322;SDS011;47203;48.428;11.974;2022-07-21T10:47:57;7.55;;;6.18;;
61322;SDS011;47203;48.428;11.974;2022-07-21T10:50:04;7.57;;;6.20;;
61322;SDS011;47203;48.428;11.974;2022-07-21T10:55:13;7.53;;;6.40;;
61322;SDS011;47203;48.428;11.974;2022-07-21T10:57:26;8.07;;;6.78;;
61322;SDS011;47203;48.428;11.974;2022-07-21T11:02:24;6.32;;;5.70;;
61322;SDS011;47203;48.428;11.974;2022-07-21T11:04:33;7.50;;;6.70;;
61322;SDS011;47203;48.428;11.974;2022-07-21T11:07:11;7.45;;;6.70;;
61322;SDS011;47203;48.428;11.974;2022-07-21T11:09:16;8.35;;;6.25;;
61322;SDS011;47203;48.428;11.974;2022-07-21T11:11:24;7.97;;;6.40;;
61322;SDS011;47203;48.428;11.974;2022-07-21T11:13:56;10.32;;;6.57;;
61322;SDS011;47203;48.428;11.974;2022-07-21T11:16:11;7.25;;;6.22;;
61322;SDS011;47203;48.428;11.974;2022-07-21T11:18:17;7.45;;;6.75;;
61322;SDS011;47203;48.428;11.974;2022-07-21T11:20:23;7.03;;;6.20;;
61322;SDS011;47203;48.428;11.974;2022-07-21T11:22:29;8.10;;;7.13;;
61322;SDS011;47203;48.428;11.974;2022-07-21T11:24:35;9.88;;;7.25;;
61322;SDS011;47203;48.428;11.974;2022-07-21T11:26:41;7.28;;;6.57;;
61322;SDS011;47203;48.428;11.974;2022-07-21T11:28:46;7.13;;;6.43;;
61322;SDS011;47203;48.428;11.974;2022-07-21T11:31:12;8.38;;;6.47;;
61322;SDS011;47203;48.428;11.974;2022-07-21T11:33:22;8.45;;;6.40;;
61322;SDS011;47203;48.428;11.974;2022-07-21T11:35:29;8.05;;;7.28;;
61322;SDS011;47203;48.428;11.974;2022-07-21T11:37:41;7.25;;;6.55;;
61322;SDS011;47203;48.428;11.974;2022-07-21T11:39:49;7.25;;;6.50;;
61322;SDS011;47203;48.428;11.974;2022-07-21T11:42:01;8.23;;;6.25;;
61322;SDS011;47203;48.428;11.974;2022-07-21T11:46:18;8.00;;;6.10;;
61322;SDS011;47203;48.428;11.974;2022-07-21T11:48:29;7.03;;;6.32;;
61322;SDS011;47203;48.428;11.974;2022-07-21T11:50:36;8.23;;;6.68;;
61322;SDS011;47203;48.428;11.974;2022-07-21T11:52:41;7.20;;;5.88;;
61322;SDS011;47203;48.428;11.974;2022-07-21T11:54:48;7.15;;;6.07;;
61322;SDS011;47203;48.428;11.974;2022-07-21T11:56:57;8.57;;;5.90;;
61322;SDS011;47203;48.428;11.974;2022-07-21T11:59:07;7.35;;;6.55;;
61322;SDS011;47203;48.428;11.974;2022-07-21T12:01:14;10.18;;;6.85;;
61322;SDS011;47203;48.428;11.974;2022-07-21T12:03:22;6.95;;;6.13;;
61322;SDS011;47203;48.428;11.974;2022-07-21T12:05:28;7.07;;;6.30;;
61322;SDS011;47203;48.428;11.974;2022-07-21T12:07:35;6.93;;;6.00;;
61322;SDS011;47203;48.428;11.974;2022-07-21T12:09:44;8.77;;;6.88;;
61322;SDS011;47203;48.428;11.974;2022-07-21T12:11:52;7.13;;;6.43;;
61322;SDS011;47203;48.428;11.974;2022-07-21T12:13:58;9.30;;;7.45;;
61322;SDS011;47203;48.428;11.974;2022-07-21T12:16:04;8.75;;;6.40;;
61322;SDS011;47203;48.428;11.974;2022-07-21T12:18:16;8.65;;;6.50;;
61322;SDS011;47203;48.428;11.974;2022-07-21T12:20:27;12.13;;;7.68;;
61322;SDS011;47203;48.428;11.974;2022-07-21T12:22:35;9.32;;;7.25;;
61322;SDS011;47203;48.428;11.974;2022-07-21T12:24:48;7.10;;;6.40;;
61322;SDS011;47203;48.428;11.974;2022-07-21T12:27:04;7.87;;;6.37;;
61322;SDS011;47203;48.428;11.974;2022-07-21T12:29:25;8.02;;;6.85;;
61322;SDS011;47203;48.428;11.974;2022-07-21T12:31:32;7.13;;;6.35;;
61322;SDS011;47203;48.428;11.974;2022-07-21T12:33:42;8.00;;;6.43;;
61322;SDS011;47203;48.428;11.974;2022-07-21T12:36:08;7.90;;;6.03;;
61322;SDS011;47203;48.428;11.974;2022-07-21T12:38:15;10.02;;;6.80;;
61322;SDS011;47203;48.428;11.974;2022-07-21T12:40:22;7.45;;;6.40;;
61322;SDS011;47203;48.428;11.974;2022-07-21T12:42:29;7.50;;;6.53;;
61322;SDS011;47203;48.428;11.974;2022-07-21T12:44:37;8.73;;;7.13;;
61322;SDS011;47203;48.428;11.974;2022-07-21T12:46:43;8.10;;;6.80;;